Terminal Aerodrome Forecast
Issued by NWS Corpus Christi, TX

Home | Current Version | Previous Version | Text Only | Print | Product List | Glossary On
Versions: 1 2 3 4 5 6 7 8 9 10 11 12 13 14 15 16 17 18 19 20 21 22 23 24 25 26 27 28
000
FTUS44 KCRP 232323
TAFCRP
TAF
KCRP 232323Z 2400/2424 03011G19KT P6SM VCSH SCT035 BKN200
      TEMPO 2400/2401 VRB15G20KT 5SM SHRA BKN030
     FM240200 VRB06KT P6SM VCSH BKN035 OVC080
     FM241500 04012G16KT P6SM SCT050=

USA.gov is the U.S. government's official web portal to all federal, state and local government web resources and services.